Ogden Hinckley Airport
KOGD : now visible

Airfield :











YOU CAN JOIN US ON...

 
LOGIN :

Register | Disclaimer

   EN    FR    IT 

 









Legend :    VFR   Marginal VFR   IFR   Intensive IFR   Very Intensive IFR
Visi :
Ceiling :
>= 8 km
>= 3000ft
5 to 8 km
1000 to 3000 ft
1500m to 5 km
500 to 1000 ft
800 to 1500m
200 to 500 ft
< 800m
< 200 ft
Symbols :   Thunderstorms  Fog  Heavy snow  Heavy precipitations  Wind > 20 kt






- Airport Elevation : 4473 ft


KOGD - Ogden Hinckley

CURRENT METAR :
  • 281111Z AUTO 12005KT 4SM -SN FEW016 BKN024 OVC050 02/M01 A3003 RMK AO2 P0000 T00171011

EXPIRED METARs :
  • 281053Z AUTO 16006KT 4SM -SN FEW016 BKN031 OVC050 02/M01 A3002 RMK AO2 SNB03 SLP163 P0000 T00171011
  • 280953Z AUTO 14007KT 10SM BKN027 BKN033 OVC043 02/M02 A3001 RMK AO2 SLP158 T00221022
  • 280853Z AUTO 16009KT 10SM BKN045 OVC055 02/M02 A3000 RMK AO2 SLP155 T00221022 53009

TAF KOGD
Valid from the 28 at 12:00 until the 29 at 12:00 UTC


281120Z 2812/2912 16007KT 3SM -SN BKN030 BKN050
FM281400 16005KT P6SM VCSH BKN040 BKN100
FM281800 30006KT P6SM BKN060 BKN100
FM282000 29005KT P6SM SCT060 SCT100
FM290300 16006KT P6SM FEW120 SCT200



MET'MAP, your aeronautical weather chart ! - Copyright ORBIFLY December 2007 - Disclaimer

ORBIFLY MET'MAP TEAM :

Programming & Development : Alexandra Zaïnal
Concept & original design : Baudouin d'Aumeries
Assistance for programming : Marc-Olivier Méhu
Technical & hardware support : Manuel Goepfert

Contact : metmap@orbifly.com




SOURCES & CREDITS :

   NOAA       Earth
Advisory